sensor_id;sensor_type;location;lat;lon;timestamp;P1;durP1;ratioP1;P2;durP2;ratioP2
3257;SDS011;1641;51.306;12.384;2022-12-18T00:00:57;94.53;;;39.28;;
3257;SDS011;1641;51.306;12.384;2022-12-18T00:03:22;91.70;;;39.88;;
3257;SDS011;1641;51.306;12.384;2022-12-18T00:05:48;93.03;;;39.63;;
3257;SDS011;1641;51.306;12.384;2022-12-18T00:08:14;96.32;;;38.70;;
3257;SDS011;1641;51.306;12.384;2022-12-18T00:10:40;102.68;;;38.83;;
3257;SDS011;1641;51.306;12.384;2022-12-18T00:13:05;91.05;;;39.58;;
3257;SDS011;1641;51.306;12.384;2022-12-18T00:15:33;89.03;;;38.88;;
3257;SDS011;1641;51.306;12.384;2022-12-18T00:17:59;87.00;;;38.97;;
3257;SDS011;1641;51.306;12.384;2022-12-18T00:20:24;101.00;;;39.53;;
3257;SDS011;1641;51.306;12.384;2022-12-18T00:22:51;89.80;;;37.90;;
3257;SDS011;1641;51.306;12.384;2022-12-18T00:25:17;92.32;;;38.10;;
3257;SDS011;1641;51.306;12.384;2022-12-18T00:27:42;91.60;;;37.25;;
3257;SDS011;1641;51.306;12.384;2022-12-18T00:30:08;94.03;;;38.72;;
3257;SDS011;1641;51.306;12.384;2022-12-18T00:32:34;90.85;;;36.70;;
3257;SDS011;1641;51.306;12.384;2022-12-18T00:34:59;90.05;;;37.75;;
3257;SDS011;1641;51.306;12.384;2022-12-18T00:37:24;91.70;;;37.05;;
3257;SDS011;1641;51.306;12.384;2022-12-18T00:39:50;80.88;;;35.03;;
3257;SDS011;1641;51.306;12.384;2022-12-18T00:42:15;83.88;;;36.15;;
3257;SDS011;1641;51.306;12.384;2022-12-18T00:44:58;90.38;;;35.90;;
3257;SDS011;1641;51.306;12.384;2022-12-18T00:47:24;94.50;;;37.72;;
3257;SDS011;1641;51.306;12.384;2022-12-18T00:49:49;84.65;;;36.72;;
3257;SDS011;1641;51.306;12.384;2022-12-18T00:52:14;85.97;;;36.55;;
3257;SDS011;1641;51.306;12.384;2022-12-18T00:54:40;84.97;;;35.72;;
3257;SDS011;1641;51.306;12.384;2022-12-18T00:57:14;76.95;;;34.05;;
3257;SDS011;1641;51.306;12.384;2022-12-18T00:59:39;82.07;;;35.05;;
3257;SDS011;1641;51.306;12.384;2022-12-18T01:02:05;87.38;;;33.55;;
3257;SDS011;1641;51.306;12.384;2022-12-18T01:04:33;91.40;;;36.03;;
3257;SDS011;1641;51.306;12.384;2022-12-18T01:06:59;86.63;;;35.83;;
3257;SDS011;1641;51.306;12.384;2022-12-18T01:09:24;79.15;;;34.20;;
3257;SDS011;1641;51.306;12.384;2022-12-18T01:11:49;79.25;;;34.65;;
3257;SDS011;1641;51.306;12.384;2022-12-18T01:14:15;78.68;;;33.92;;
3257;SDS011;1641;51.306;12.384;2022-12-18T01:16:40;79.45;;;34.95;;
3257;SDS011;1641;51.306;12.384;2022-12-18T01:19:05;75.10;;;34.53;;
3257;SDS011;1641;51.306;12.384;2022-12-18T01:21:31;93.00;;;35.65;;
3257;SDS011;1641;51.306;12.384;2022-12-18T01:23:56;78.13;;;33.28;;
3257;SDS011;1641;51.306;12.384;2022-12-18T01:26:25;78.30;;;32.97;;
3257;SDS011;1641;51.306;12.384;2022-12-18T01:28:50;71.65;;;31.73;;
3257;SDS011;1641;51.306;12.384;2022-12-18T01:31:17;75.75;;;32.90;;
3257;SDS011;1641;51.306;12.384;2022-12-18T01:33:47;76.20;;;34.70;;
3257;SDS011;1641;51.306;12.384;2022-12-18T01:36:19;77.50;;;31.92;;
3257;SDS011;1641;51.306;12.384;2022-12-18T01:39:11;76.97;;;33.10;;
3257;SDS011;1641;51.306;12.384;2022-12-18T01:41:38;79.03;;;32.33;;
3257;SDS011;1641;51.306;12.384;2022-12-18T01:47:47;68.10;;;30.02;;
3257;SDS011;1641;51.306;12.384;2022-12-18T01:50:21;79.70;;;33.63;;
3257;SDS011;1641;51.306;12.384;2022-12-18T01:52:48;82.18;;;31.55;;
3257;SDS011;1641;51.306;12.384;2022-12-18T01:55:22;80.25;;;31.90;;
3257;SDS011;1641;51.306;12.384;2022-12-18T01:57:51;74.85;;;31.60;;
3257;SDS011;1641;51.306;12.384;2022-12-18T02:00:19;76.28;;;32.72;;
3257;SDS011;1641;51.306;12.384;2022-12-18T02:02:46;75.32;;;32.92;;
3257;SDS011;1641;51.306;12.384;2022-12-18T02:05:12;83.63;;;32.30;;
3257;SDS011;1641;51.306;12.384;2022-12-18T02:18:24;75.22;;;28.67;;
3257;SDS011;1641;51.306;12.384;2022-12-18T02:26:15;67.53;;;29.70;;
3257;SDS011;1641;51.306;12.384;2022-12-18T02:31:42;65.43;;;28.77;;
3257;SDS011;1641;51.306;12.384;2022-12-18T02:34:14;66.93;;;28.10;;
3257;SDS011;1641;51.306;12.384;2022-12-18T02:36:42;66.40;;;27.10;;
3257;SDS011;1641;51.306;12.384;2022-12-18T02:39:10;51.13;;;24.92;;
3257;SDS011;1641;51.306;12.384;2022-12-18T02:41:38;63.17;;;28.95;;
3257;SDS011;1641;51.306;12.384;2022-12-18T02:44:07;52.70;;;25.70;;
3257;SDS011;1641;51.306;12.384;2022-12-18T02:49:12;56.47;;;25.08;;
3257;SDS011;1641;51.306;12.384;2022-12-18T02:51:53;50.08;;;25.08;;
3257;SDS011;1641;51.306;12.384;2022-12-18T02:54:32;56.25;;;25.58;;
3257;SDS011;1641;51.306;12.384;2022-12-18T02:57:00;51.97;;;24.83;;
3257;SDS011;1641;51.306;12.384;2022-12-18T02:59:39;58.88;;;26.45;;
3257;SDS011;1641;51.306;12.384;2022-12-18T03:02:28;56.40;;;25.35;;
3257;SDS011;1641;51.306;12.384;2022-12-18T03:11:01;55.53;;;25.55;;
3257;SDS011;1641;51.306;12.384;2022-12-18T03:13:33;59.80;;;25.63;;
3257;SDS011;1641;51.306;12.384;2022-12-18T03:16:01;56.47;;;24.48;;
3257;SDS011;1641;51.306;12.384;2022-12-18T03:18:35;59.38;;;23.90;;
3257;SDS011;1641;51.306;12.384;2022-12-18T03:21:04;48.22;;;23.40;;
3257;SDS011;1641;51.306;12.384;2022-12-18T03:23:35;51.97;;;24.10;;
3257;SDS011;1641;51.306;12.384;2022-12-18T03:26:07;49.85;;;21.17;;
3257;SDS011;1641;51.306;12.384;2022-12-18T03:28:37;52.10;;;23.23;;
3257;SDS011;1641;51.306;12.384;2022-12-18T03:31:07;46.13;;;22.15;;
3257;SDS011;1641;51.306;12.384;2022-12-18T03:34:09;46.17;;;20.20;;
3257;SDS011;1641;51.306;12.384;2022-12-18T03:36:29;42.50;;;21.00;;
3257;SDS011;1641;51.306;12.384;2022-12-18T03:38:55;47.30;;;22.10;;
3257;SDS011;1641;51.306;12.384;2022-12-18T03:41:29;41.80;;;21.05;;
3257;SDS011;1641;51.306;12.384;2022-12-18T03:49:14;45.55;;;21.10;;
3257;SDS011;1641;51.306;12.384;2022-12-18T03:51:48;42.08;;;20.85;;
3257;SDS011;1641;51.306;12.384;2022-12-18T03:54:17;46.10;;;22.08;;
3257;SDS011;1641;51.306;12.384;2022-12-18T03:56:44;50.95;;;20.52;;
3257;SDS011;1641;51.306;12.384;2022-12-18T03:59:13;42.97;;;20.88;;
3257;SDS011;1641;51.306;12.384;2022-12-18T04:01:42;42.58;;;19.20;;
3257;SDS011;1641;51.306;12.384;2022-12-18T04:04:11;44.75;;;20.00;;
3257;SDS011;1641;51.306;12.384;2022-12-18T04:06:38;41.17;;;19.48;;
3257;SDS011;1641;51.306;12.384;2022-12-18T04:09:05;36.40;;;18.05;;
3257;SDS011;1641;51.306;12.384;2022-12-18T04:11:31;31.75;;;17.15;;
3257;SDS011;1641;51.306;12.384;2022-12-18T04:13:57;37.85;;;19.38;;
3257;SDS011;1641;51.306;12.384;2022-12-18T04:16:23;38.95;;;19.08;;
3257;SDS011;1641;51.306;12.384;2022-12-18T04:18:49;39.13;;;18.25;;
3257;SDS011;1641;51.306;12.384;2022-12-18T04:21:15;49.22;;;19.40;;
3257;SDS011;1641;51.306;12.384;2022-12-18T04:23:43;37.08;;;18.77;;
3257;SDS011;1641;51.306;12.384;2022-12-18T04:26:08;39.80;;;17.52;;
3257;SDS011;1641;51.306;12.384;2022-12-18T04:28:33;41.75;;;17.55;;
3257;SDS011;1641;51.306;12.384;2022-12-18T04:30:58;35.80;;;17.02;;
3257;SDS011;1641;51.306;12.384;2022-12-18T04:33:24;31.95;;;16.02;;
3257;SDS011;1641;51.306;12.384;2022-12-18T04:35:52;32.85;;;16.23;;
3257;SDS011;1641;51.306;12.384;2022-12-18T04:38:17;34.50;;;16.55;;
3257;SDS011;1641;51.306;12.384;2022-12-18T04:40:43;33.03;;;16.73;;
3257;SDS011;1641;51.306;12.384;2022-12-18T04:43:08;30.50;;;16.05;;
3257;SDS011;1641;51.306;12.384;2022-12-18T04:45:36;34.78;;;17.33;;
3257;SDS011;1641;51.306;12.384;2022-12-18T04:48:02;32.95;;;17.20;;
3257;SDS011;1641;51.306;12.384;2022-12-18T04:50:28;34.25;;;15.00;;
3257;SDS011;1641;51.306;12.384;2022-12-18T04:52:54;36.42;;;16.80;;
3257;SDS011;1641;51.306;12.384;2022-12-18T04:55:21;35.78;;;15.15;;
3257;SDS011;1641;51.306;12.384;2022-12-18T04:57:46;30.00;;;16.23;;
3257;SDS011;1641;51.306;12.384;2022-12-18T05:00:11;32.80;;;15.30;;
3257;SDS011;1641;51.306;12.384;2022-12-18T05:02:37;28.35;;;14.40;;
3257;SDS011;1641;51.306;12.384;2022-12-18T05:05:03;30.20;;;14.90;;
3257;SDS011;1641;51.306;12.384;2022-12-18T05:07:28;28.00;;;13.93;;
3257;SDS011;1641;51.306;12.384;2022-12-18T05:09:54;27.48;;;13.18;;
3257;SDS011;1641;51.306;12.384;2022-12-18T05:12:22;27.92;;;14.85;;
3257;SDS011;1641;51.306;12.384;2022-12-18T05:14:49;27.73;;;13.15;;
3257;SDS011;1641;51.306;12.384;2022-12-18T05:17:14;27.80;;;13.82;;
3257;SDS011;1641;51.306;12.384;2022-12-18T05:19:40;25.48;;;12.95;;
3257;SDS011;1641;51.306;12.384;2022-12-18T05:22:05;23.35;;;13.27;;
3257;SDS011;1641;51.306;12.384;2022-12-18T05:24:30;26.77;;;13.18;;
3257;SDS011;1641;51.306;12.384;2022-12-18T05:26:59;23.85;;;12.05;;
3257;SDS011;1641;51.306;12.384;2022-12-18T05:29:24;23.13;;;11.55;;
3257;SDS011;1641;51.306;12.384;2022-12-18T05:31:49;32.75;;;13.88;;
3257;SDS011;1641;51.306;12.384;2022-12-18T05:34:15;31.80;;;13.88;;
3257;SDS011;1641;51.306;12.384;2022-12-18T05:36:40;25.45;;;12.57;;
3257;SDS011;1641;51.306;12.384;2022-12-18T05:39:06;23.00;;;13.10;;
3257;SDS011;1641;51.306;12.384;2022-12-18T05:41:31;29.65;;;12.80;;
3257;SDS011;1641;51.306;12.384;2022-12-18T05:43:57;23.33;;;12.27;;
3257;SDS011;1641;51.306;12.384;2022-12-18T05:46:23;24.83;;;12.23;;
3257;SDS011;1641;51.306;12.384;2022-12-18T05:48:49;29.50;;;13.32;;
3257;SDS011;1641;51.306;12.384;2022-12-18T05:51:16;25.73;;;13.18;;
3257;SDS011;1641;51.306;12.384;2022-12-18T05:53:42;22.75;;;12.38;;
3257;SDS011;1641;51.306;12.384;2022-12-18T05:56:13;31.13;;;13.63;;
3257;SDS011;1641;51.306;12.384;2022-12-18T05:58:42;25.17;;;13.20;;
3257;SDS011;1641;51.306;12.384;2022-12-18T06:01:11;29.15;;;13.15;;
3257;SDS011;1641;51.306;12.384;2022-12-18T06:03:40;24.45;;;12.55;;
3257;SDS011;1641;51.306;12.384;2022-12-18T06:06:27;24.45;;;13.75;;
3257;SDS011;1641;51.306;12.384;2022-12-18T06:08:52;28.60;;;13.70;;
3257;SDS011;1641;51.306;12.384;2022-12-18T06:11:20;28.00;;;13.57;;
3257;SDS011;1641;51.306;12.384;2022-12-18T06:13:50;26.88;;;13.93;;
3257;SDS011;1641;51.306;12.384;2022-12-18T06:16:20;30.88;;;14.60;;
3257;SDS011;1641;51.306;12.384;2022-12-18T06:18:45;23.33;;;13.52;;
3257;SDS011;1641;51.306;12.384;2022-12-18T06:21:11;30.58;;;15.00;;
3257;SDS011;1641;51.306;12.384;2022-12-18T06:23:36;29.02;;;13.65;;
3257;SDS011;1641;51.306;12.384;2022-12-18T06:26:05;26.92;;;14.38;;
3257;SDS011;1641;51.306;12.384;2022-12-18T06:28:31;29.08;;;13.82;;
3257;SDS011;1641;51.306;12.384;2022-12-18T06:30:57;27.95;;;14.63;;
3257;SDS011;1641;51.306;12.384;2022-12-18T06:33:22;33.90;;;15.25;;
3257;SDS011;1641;51.306;12.384;2022-12-18T06:35:51;24.92;;;13.07;;
3257;SDS011;1641;51.306;12.384;2022-12-18T06:38:17;27.58;;;14.70;;
3257;SDS011;1641;51.306;12.384;2022-12-18T06:40:42;34.00;;;15.30;;
3257;SDS011;1641;51.306;12.384;2022-12-18T06:43:07;27.38;;;14.95;;
3257;SDS011;1641;51.306;12.384;2022-12-18T06:45:33;27.63;;;15.18;;
3257;SDS011;1641;51.306;12.384;2022-12-18T06:47:58;30.33;;;14.85;;
3257;SDS011;1641;51.306;12.384;2022-12-18T06:50:24;29.90;;;15.32;;
3257;SDS011;1641;51.306;12.384;2022-12-18T06:52:49;31.85;;;15.32;;
3257;SDS011;1641;51.306;12.384;2022-12-18T06:55:14;28.27;;;15.27;;
3257;SDS011;1641;51.306;12.384;2022-12-18T06:57:39;35.85;;;15.05;;
3257;SDS011;1641;51.306;12.384;2022-12-18T07:00:05;30.38;;;14.48;;
3257;SDS011;1641;51.306;12.384;2022-12-18T07:02:31;25.17;;;13.75;;
3257;SDS011;1641;51.306;12.384;2022-12-18T07:04:57;29.05;;;14.75;;
3257;SDS011;1641;51.306;12.384;2022-12-18T07:07:22;24.65;;;12.82;;
3257;SDS011;1641;51.306;12.384;2022-12-18T07:09:51;26.02;;;13.50;;
3257;SDS011;1641;51.306;12.384;2022-12-18T07:12:17;24.83;;;13.77;;
3257;SDS011;1641;51.306;12.384;2022-12-18T07:14:42;24.42;;;13.77;;
3257;SDS011;1641;51.306;12.384;2022-12-18T07:17:07;27.98;;;13.65;;
3257;SDS011;1641;51.306;12.384;2022-12-18T07:19:33;39.10;;;15.80;;
3257;SDS011;1641;51.306;12.384;2022-12-18T07:21:58;26.08;;;14.18;;
3257;SDS011;1641;51.306;12.384;2022-12-18T07:24:24;23.58;;;13.57;;
3257;SDS011;1641;51.306;12.384;2022-12-18T07:26:49;27.98;;;15.30;;
3257;SDS011;1641;51.306;12.384;2022-12-18T07:29:14;27.30;;;14.68;;
3257;SDS011;1641;51.306;12.384;2022-12-18T07:31:40;28.02;;;14.82;;
3257;SDS011;1641;51.306;12.384;2022-12-18T07:34:09;26.35;;;13.55;;
3257;SDS011;1641;51.306;12.384;2022-12-18T07:36:35;24.60;;;13.35;;
3257;SDS011;1641;51.306;12.384;2022-12-18T07:39:00;24.67;;;13.63;;
3257;SDS011;1641;51.306;12.384;2022-12-18T07:41:26;22.27;;;13.70;;
3257;SDS011;1641;51.306;12.384;2022-12-18T07:43:51;25.67;;;11.93;;
3257;SDS011;1641;51.306;12.384;2022-12-18T07:46:16;27.00;;;12.27;;
3257;SDS011;1641;51.306;12.384;2022-12-18T07:48:43;21.60;;;12.40;;
3257;SDS011;1641;51.306;12.384;2022-12-18T07:51:12;21.02;;;11.88;;
3257;SDS011;1641;51.306;12.384;2022-12-18T07:53:38;25.88;;;11.98;;
3257;SDS011;1641;51.306;12.384;2022-12-18T07:56:04;27.63;;;13.18;;
3257;SDS011;1641;51.306;12.384;2022-12-18T07:58:32;23.77;;;12.45;;
3257;SDS011;1641;51.306;12.384;2022-12-18T08:01:02;23.98;;;12.50;;
3257;SDS011;1641;51.306;12.384;2022-12-18T08:03:37;22.65;;;12.68;;
3257;SDS011;1641;51.306;12.384;2022-12-18T08:06:05;20.50;;;10.93;;
3257;SDS011;1641;51.306;12.384;2022-12-18T08:08:32;24.33;;;13.13;;
3257;SDS011;1641;51.306;12.384;2022-12-18T08:10:58;28.85;;;13.07;;
3257;SDS011;1641;51.306;12.384;2022-12-18T08:13:24;28.10;;;12.68;;
3257;SDS011;1641;51.306;12.384;2022-12-18T08:16:00;30.55;;;14.40;;
3257;SDS011;1641;51.306;12.384;2022-12-18T08:18:34;22.83;;;12.93;;
3257;SDS011;1641;51.306;12.384;2022-12-18T08:21:07;24.55;;;12.32;;
3257;SDS011;1641;51.306;12.384;2022-12-18T08:23:34;21.27;;;13.02;;
3257;SDS011;1641;51.306;12.384;2022-12-18T08:26:00;20.45;;;11.85;;
3257;SDS011;1641;51.306;12.384;2022-12-18T08:28:25;21.15;;;11.65;;
3257;SDS011;1641;51.306;12.384;2022-12-18T08:30:51;14.63;;;10.75;;
3257;SDS011;1641;51.306;12.384;2022-12-18T08:33:19;37.03;;;21.15;;
3257;SDS011;1641;51.306;12.384;2022-12-18T08:35:48;12.48;;;9.32;;
3257;SDS011;1641;51.306;12.384;2022-12-18T08:38:13;14.52;;;8.75;;
3257;SDS011;1641;51.306;12.384;2022-12-18T08:40:38;21.27;;;8.15;;
3257;SDS011;1641;51.306;12.384;2022-12-18T08:43:04;14.85;;;8.00;;
3257;SDS011;1641;51.306;12.384;2022-12-18T08:45:47;10.95;;;7.80;;
3257;SDS011;1641;51.306;12.384;2022-12-18T08:48:16;12.20;;;8.40;;
3257;SDS011;1641;51.306;12.384;2022-12-18T08:50:57;10.88;;;7.60;;
3257;SDS011;1641;51.306;12.384;2022-12-18T08:53:23;16.02;;;9.80;;
3257;SDS011;1641;51.306;12.384;2022-12-18T08:55:49;12.63;;;8.32;;
3257;SDS011;1641;51.306;12.384;2022-12-18T08:58:14;11.20;;;8.07;;
3257;SDS011;1641;51.306;12.384;2022-12-18T09:00:40;10.35;;;6.72;;
3257;SDS011;1641;51.306;12.384;2022-12-18T09:03:05;11.88;;;7.45;;
3257;SDS011;1641;51.306;12.384;2022-12-18T09:05:43;10.00;;;7.22;;
3257;SDS011;1641;51.306;12.384;2022-12-18T09:08:10;11.05;;;7.03;;
3257;SDS011;1641;51.306;12.384;2022-12-18T09:10:41;9.88;;;6.65;;
3257;SDS011;1641;51.306;12.384;2022-12-18T09:13:10;7.85;;;5.97;;
3257;SDS011;1641;51.306;12.384;2022-12-18T09:15:40;12.95;;;6.70;;
3257;SDS011;1641;51.306;12.384;2022-12-18T09:18:26;9.52;;;6.05;;
3257;SDS011;1641;51.306;12.384;2022-12-18T09:20:51;9.75;;;6.03;;
3257;SDS011;1641;51.306;12.384;2022-12-18T09:23:17;11.30;;;6.80;;
3257;SDS011;1641;51.306;12.384;2022-12-18T09:25:43;8.48;;;5.97;;
3257;SDS011;1641;51.306;12.384;2022-12-18T09:28:15;13.70;;;6.90;;
3257;SDS011;1641;51.306;12.384;2022-12-18T09:30:46;13.48;;;7.20;;
3257;SDS011;1641;51.306;12.384;2022-12-18T09:33:16;11.38;;;7.57;;
3257;SDS011;1641;51.306;12.384;2022-12-18T09:35:42;13.07;;;8.35;;
3257;SDS011;1641;51.306;12.384;2022-12-18T09:38:13;12.70;;;7.93;;
3257;SDS011;1641;51.306;12.384;2022-12-18T09:40:46;10.00;;;5.68;;
3257;SDS011;1641;51.306;12.384;2022-12-18T09:43:24;11.65;;;6.95;;
3257;SDS011;1641;51.306;12.384;2022-12-18T09:45:55;9.55;;;5.00;;
3257;SDS011;1641;51.306;12.384;2022-12-18T09:48:26;9.27;;;5.90;;
3257;SDS011;1641;51.306;12.384;2022-12-18T09:50:59;10.68;;;5.72;;
3257;SDS011;1641;51.306;12.384;2022-12-18T09:53:35;9.70;;;6.03;;
3257;SDS011;1641;51.306;12.384;2022-12-18T09:56:03;9.70;;;6.30;;
3257;SDS011;1641;51.306;12.384;2022-12-18T10:01:10;13.25;;;6.30;;
3257;SDS011;1641;51.306;12.384;2022-12-18T10:03:39;29.67;;;14.68;;
3257;SDS011;1641;51.306;12.384;2022-12-18T10:13:54;10.88;;;5.97;;
3257;SDS011;1641;51.306;12.384;2022-12-18T10:16:27;16.20;;;11.40;;
3257;SDS011;1641;51.306;12.384;2022-12-18T10:19:10;11.23;;;6.05;;
3257;SDS011;1641;51.306;12.384;2022-12-18T10:21:51;20.70;;;10.02;;
3257;SDS011;1641;51.306;12.384;2022-12-18T10:27:12;10.30;;;6.20;;
3257;SDS011;1641;51.306;12.384;2022-12-18T10:29:40;9.90;;;5.75;;
3257;SDS011;1641;51.306;12.384;2022-12-18T10:32:07;9.75;;;6.70;;
3257;SDS011;1641;51.306;12.384;2022-12-18T10:34:34;7.80;;;5.35;;
3257;SDS011;1641;51.306;12.384;2022-12-18T10:37:00;11.65;;;6.60;;
3257;SDS011;1641;51.306;12.384;2022-12-18T10:39:37;10.27;;;6.70;;
3257;SDS011;1641;51.306;12.384;2022-12-18T10:42:10;8.73;;;4.28;;
3257;SDS011;1641;51.306;12.384;2022-12-18T10:44:41;9.95;;;6.72;;
3257;SDS011;1641;51.306;12.384;2022-12-18T10:47:10;10.25;;;6.18;;
3257;SDS011;1641;51.306;12.384;2022-12-18T10:49:49;6.63;;;4.63;;
3257;SDS011;1641;51.306;12.384;2022-12-18T10:52:21;6.65;;;5.00;;
3257;SDS011;1641;51.306;12.384;2022-12-18T10:54:50;16.63;;;8.00;;
3257;SDS011;1641;51.306;12.384;2022-12-18T10:59:55;10.05;;;6.22;;
3257;SDS011;1641;51.306;12.384;2022-12-18T11:04:59;9.65;;;6.65;;
3257;SDS011;1641;51.306;12.384;2022-12-18T11:07:25;9.55;;;7.07;;
3257;SDS011;1641;51.306;12.384;2022-12-18T11:10:15;11.15;;;6.97;;
3257;SDS011;1641;51.306;12.384;2022-12-18T11:12:42;11.55;;;7.90;;
3257;SDS011;1641;51.306;12.384;2022-12-18T11:15:13;10.63;;;6.60;;
3257;SDS011;1641;51.306;12.384;2022-12-18T11:17:41;15.93;;;6.45;;
3257;SDS011;1641;51.306;12.384;2022-12-18T11:20:19;12.60;;;6.72;;
3257;SDS011;1641;51.306;12.384;2022-12-18T11:22:53;9.60;;;7.07;;
3257;SDS011;1641;51.306;12.384;2022-12-18T11:25:23;14.13;;;8.75;;
3257;SDS011;1641;51.306;12.384;2022-12-18T11:27:51;10.43;;;6.95;;
3257;SDS011;1641;51.306;12.384;2022-12-18T11:30:31;11.10;;;6.32;;
3257;SDS011;1641;51.306;12.384;2022-12-18T11:33:03;18.08;;;9.30;;
3257;SDS011;1641;51.306;12.384;2022-12-18T11:38:21;12.85;;;7.35;;
3257;SDS011;1641;51.306;12.384;2022-12-18T11:41:04;12.10;;;7.55;;
3257;SDS011;1641;51.306;12.384;2022-12-18T11:43:32;15.57;;;7.88;;
3257;SDS011;1641;51.306;12.384;2022-12-18T11:46:08;15.40;;;10.38;;
3257;SDS011;1641;51.306;12.384;2022-12-18T11:48:41;12.05;;;7.55;;
3257;SDS011;1641;51.306;12.384;2022-12-18T11:51:11;9.82;;;6.65;;
3257;SDS011;1641;51.306;12.384;2022-12-18T11:53:45;10.60;;;7.40;;
3257;SDS011;1641;51.306;12.384;2022-12-18T12:14:52;12.27;;;8.18;;
3257;SDS011;1641;51.306;12.384;2022-12-18T12:20:01;13.15;;;8.48;;
3257;SDS011;1641;51.306;12.384;2022-12-18T12:30:58;12.43;;;6.72;;
3257;SDS011;1641;51.306;12.384;2022-12-18T12:33:31;13.63;;;8.25;;
3257;SDS011;1641;51.306;12.384;2022-12-18T12:38:41;11.02;;;6.72;;
3257;SDS011;1641;51.306;12.384;2022-12-18T12:41:14;11.50;;;6.97;;
3257;SDS011;1641;51.306;12.384;2022-12-18T12:44:03;9.55;;;6.68;;
3257;SDS011;1641;51.306;12.384;2022-12-18T12:46:32;10.57;;;6.68;;
3257;SDS011;1641;51.306;12.384;2022-12-18T12:49:03;12.88;;;7.97;;
3257;SDS011;1641;51.306;12.384;2022-12-18T12:51:35;13.15;;;7.70;;
3257;SDS011;1641;51.306;12.384;2022-12-18T12:54:04;19.63;;;10.35;;
3257;SDS011;1641;51.306;12.384;2022-12-18T12:56:38;13.07;;;8.90;;
3257;SDS011;1641;51.306;12.384;2022-12-18T12:59:27;14.18;;;9.38;;
3257;SDS011;1641;51.306;12.384;2022-12-18T13:08:00;13.35;;;8.07;;
3257;SDS011;1641;51.306;12.384;2022-12-18T13:10:32;5.50;;;4.05;;
3257;SDS011;1641;51.306;12.384;2022-12-18T13:13:09;23.10;;;10.82;;
3257;SDS011;1641;51.306;12.384;2022-12-18T13:18:21;21.23;;;11.00;;
3257;SDS011;1641;51.306;12.384;2022-12-18T13:20:49;19.38;;;11.52;;
3257;SDS011;1641;51.306;12.384;2022-12-18T13:25:47;11.73;;;7.22;;
3257;SDS011;1641;51.306;12.384;2022-12-18T13:28:16;18.90;;;10.82;;
3257;SDS011;1641;51.306;12.384;2022-12-18T13:35:39;18.98;;;10.20;;
3257;SDS011;1641;51.306;12.384;2022-12-18T13:38:24;23.75;;;10.65;;
3257;SDS011;1641;51.306;12.384;2022-12-18T13:41:45;22.15;;;10.23;;
3257;SDS011;1641;51.306;12.384;2022-12-18T13:43:54;19.50;;;9.13;;
3257;SDS011;1641;51.306;12.384;2022-12-18T13:48:56;20.05;;;11.68;;
3257;SDS011;1641;51.306;12.384;2022-12-18T13:51:25;16.00;;;10.27;;
3257;SDS011;1641;51.306;12.384;2022-12-18T13:53:55;17.10;;;8.70;;
3257;SDS011;1641;51.306;12.384;2022-12-18T13:56:25;15.27;;;8.98;;
3257;SDS011;1641;51.306;12.384;2022-12-18T14:01:49;17.10;;;9.82;;
3257;SDS011;1641;51.306;12.384;2022-12-18T14:04:28;14.20;;;8.98;;
3257;SDS011;1641;51.306;12.384;2022-12-18T14:07:13;15.80;;;8.07;;
3257;SDS011;1641;51.306;12.384;2022-12-18T14:09:42;19.27;;;10.15;;
3257;SDS011;1641;51.306;12.384;2022-12-18T14:12:14;23.23;;;10.77;;
3257;SDS011;1641;51.306;12.384;2022-12-18T14:15:00;12.55;;;7.45;;
3257;SDS011;1641;51.306;12.384;2022-12-18T14:17:25;20.95;;;12.23;;
3257;SDS011;1641;51.306;12.384;2022-12-18T14:19:51;20.92;;;11.27;;
3257;SDS011;1641;51.306;12.384;2022-12-18T14:22:18;17.20;;;9.45;;
3257;SDS011;1641;51.306;12.384;2022-12-18T14:24:45;20.13;;;9.85;;
3257;SDS011;1641;51.306;12.384;2022-12-18T14:27:21;25.83;;;12.38;;
3257;SDS011;1641;51.306;12.384;2022-12-18T14:29:49;21.60;;;11.35;;
3257;SDS011;1641;51.306;12.384;2022-12-18T14:32:16;23.58;;;12.15;;
3257;SDS011;1641;51.306;12.384;2022-12-18T14:34:48;54.35;;;21.45;;
3257;SDS011;1641;51.306;12.384;2022-12-18T14:37:16;31.05;;;16.80;;
3257;SDS011;1641;51.306;12.384;2022-12-18T14:40:00;26.60;;;14.23;;
3257;SDS011;1641;51.306;12.384;2022-12-18T14:42:30;23.40;;;14.02;;
3257;SDS011;1641;51.306;12.384;2022-12-18T14:45:31;30.42;;;16.35;;
3257;SDS011;1641;51.306;12.384;2022-12-18T14:47:59;24.65;;;12.57;;
3257;SDS011;1641;51.306;12.384;2022-12-18T14:50:25;45.75;;;23.80;;
3257;SDS011;1641;51.306;12.384;2022-12-18T14:52:51;36.65;;;18.10;;
3257;SDS011;1641;51.306;12.384;2022-12-18T14:55:17;34.00;;;17.98;;
3257;SDS011;1641;51.306;12.384;2022-12-18T14:57:44;77.65;;;33.17;;
3257;SDS011;1641;51.306;12.384;2022-12-18T15:00:17;62.03;;;26.85;;
3257;SDS011;1641;51.306;12.384;2022-12-18T15:02:48;49.15;;;21.70;;
3257;SDS011;1641;51.306;12.384;2022-12-18T15:07:56;42.85;;;21.00;;
3257;SDS011;1641;51.306;12.384;2022-12-18T15:10:27;102.07;;;42.20;;
3257;SDS011;1641;51.306;12.384;2022-12-18T15:20:44;47.30;;;18.15;;
3257;SDS011;1641;51.306;12.384;2022-12-18T15:23:19;32.17;;;15.85;;
3257;SDS011;1641;51.306;12.384;2022-12-18T15:25:55;36.97;;;17.58;;
3257;SDS011;1641;51.306;12.384;2022-12-18T15:28:22;38.60;;;19.08;;
3257;SDS011;1641;51.306;12.384;2022-12-18T15:31:03;35.33;;;18.63;;
3257;SDS011;1641;51.306;12.384;2022-12-18T15:33:39;37.95;;;17.85;;
3257;SDS011;1641;51.306;12.384;2022-12-18T15:36:10;39.00;;;18.00;;
3257;SDS011;1641;51.306;12.384;2022-12-18T15:38:37;40.72;;;22.13;;
3257;SDS011;1641;51.306;12.384;2022-12-18T15:41:22;53.45;;;25.85;;
3257;SDS011;1641;51.306;12.384;2022-12-18T15:43:51;44.20;;;22.33;;
3257;SDS011;1641;51.306;12.384;2022-12-18T15:46:22;41.55;;;20.98;;
3257;SDS011;1641;51.306;12.384;2022-12-18T15:51:35;41.67;;;21.02;;
3257;SDS011;1641;51.306;12.384;2022-12-18T15:54:02;34.10;;;17.88;;
3257;SDS011;1641;51.306;12.384;2022-12-18T15:56:29;38.08;;;18.23;;
3257;SDS011;1641;51.306;12.384;2022-12-18T15:59:14;41.00;;;18.75;;
3257;SDS011;1641;51.306;12.384;2022-12-18T16:01:42;41.10;;;21.23;;
3257;SDS011;1641;51.306;12.384;2022-12-18T16:04:11;46.20;;;19.95;;
3257;SDS011;1641;51.306;12.384;2022-12-18T16:06:38;49.95;;;22.63;;
3257;SDS011;1641;51.306;12.384;2022-12-18T16:09:04;45.83;;;21.33;;
3257;SDS011;1641;51.306;12.384;2022-12-18T16:11:30;42.25;;;19.08;;
3257;SDS011;1641;51.306;12.384;2022-12-18T16:14:06;27.23;;;14.82;;
3257;SDS011;1641;51.306;12.384;2022-12-18T16:16:37;44.97;;;19.52;;
3257;SDS011;1641;51.306;12.384;2022-12-18T16:19:02;36.45;;;17.55;;
3257;SDS011;1641;51.306;12.384;2022-12-18T16:21:28;35.22;;;16.10;;
3257;SDS011;1641;51.306;12.384;2022-12-18T16:23:53;27.55;;;15.88;;
3257;SDS011;1641;51.306;12.384;2022-12-18T16:26:18;41.95;;;20.25;;
3257;SDS011;1641;51.306;12.384;2022-12-18T16:28:44;30.63;;;17.13;;
3257;SDS011;1641;51.306;12.384;2022-12-18T16:31:10;47.58;;;21.30;;
3257;SDS011;1641;51.306;12.384;2022-12-18T16:33:38;42.25;;;25.02;;
3257;SDS011;1641;51.306;12.384;2022-12-18T16:36:07;36.15;;;17.60;;
3257;SDS011;1641;51.306;12.384;2022-12-18T16:38:32;36.67;;;18.10;;
3257;SDS011;1641;51.306;12.384;2022-12-18T16:40:58;44.17;;;19.02;;
3257;SDS011;1641;51.306;12.384;2022-12-18T16:43:42;46.75;;;19.65;;
3257;SDS011;1641;51.306;12.384;2022-12-18T16:46:10;42.42;;;21.52;;
3257;SDS011;1641;51.306;12.384;2022-12-18T16:48:35;46.10;;;21.75;;
3257;SDS011;1641;51.306;12.384;2022-12-18T16:51:03;40.88;;;19.60;;
3257;SDS011;1641;51.306;12.384;2022-12-18T16:53:30;41.75;;;19.23;;
3257;SDS011;1641;51.306;12.384;2022-12-18T16:55:56;44.20;;;22.02;;